Time;durP1;ratioP1;P1;durP2;ratioP2;P2;SDS_P1;SDS_P2;PMS_P1;PMS_P2;Temp;Humidity;BMP_temperature;BMP_pressure;BME280_temperature;BME280_humidity;BME280_pressure;Samples;Min_cycle;Max_cycle;Signal;HPM_P1;HPM_P2
2022/03/13 00:02:02;;;;;;;11.90;4.65;;;;;;;-141.50;100.00;63355.56;5011166;28;20526;-77
2022/03/13 00:04:29;;;;;;;9.00;4.40;;;;;;;-141.50;100.00;63355.56;5010879;28;20060;-77
2022/03/13 00:06:56;;;;;;;13.68;4.82;;;;;;;-141.50;100.00;63355.56;5010394;28;20058;-76
2022/03/13 00:09:25;;;;;;;11.63;5.53;;;;;;;-141.50;100.00;63355.56;5011505;28;20061;-78
2022/03/13 00:11:53;;;;;;;15.80;5.78;;;;;;;-141.50;100.00;63355.56;5009157;28;20057;-77
2022/03/13 00:14:24;;;;;;;12.80;5.07;;;;;;;-141.50;100.00;63355.56;5010949;28;20046;-78
2022/03/13 00:16:52;;;;;;;13.65;5.55;;;;;;;-141.50;100.00;63355.56;5012454;28;20100;-78
2022/03/13 00:19:20;;;;;;;13.13;5.30;;;;;;;-141.50;100.00;63355.56;5011351;28;20050;-78
2022/03/13 00:21:52;;;;;;;11.60;4.80;;;;;;;-141.50;100.00;63355.56;5008912;28;20060;-76
2022/03/13 00:24:23;;;;;;;10.85;5.00;;;;;;;-141.50;100.00;63355.56;5010591;28;20052;-78
2022/03/13 00:26:52;;;;;;;11.70;5.10;;;;;;;-141.50;100.00;63355.56;5010150;28;20054;-78
2022/03/13 00:29:19;;;;;;;12.75;5.22;;;;;;;-141.50;100.00;63355.56;5005342;28;20061;-78
2022/03/13 00:31:46;;;;;;;13.98;4.85;;;;;;;-141.50;100.00;63355.56;5026093;28;20049;-78
2022/03/13 00:34:14;;;;;;;12.13;4.97;;;;;;;-141.50;100.00;63355.56;5033725;28;20468;-78
2022/03/13 00:36:41;;;;;;;11.77;4.75;;;;;;;-141.50;100.00;63355.56;5031422;28;20128;-79
2022/03/13 00:39:09;;;;;;;15.32;4.63;;;;;;;-141.50;100.00;63355.56;5010115;28;20131;-76
2022/03/13 00:41:36;;;;;;;10.75;5.20;;;;;;;-141.50;100.00;63355.56;5010058;28;20120;-76
2022/03/13 00:44:04;;;;;;;12.93;5.07;;;;;;;-141.50;100.00;63355.56;5010654;28;20136;-79
2022/03/13 00:46:31;;;;;;;13.50;4.93;;;;;;;-141.50;100.00;63355.56;4998892;28;20054;-78
2022/03/13 00:48:58;;;;;;;11.25;4.50;;;;;;;-141.50;100.00;63355.56;4990974;28;20085;-77
2022/03/13 00:51:25;;;;;;;11.50;5.13;;;;;;;-141.50;100.00;63355.56;4990665;28;20050;-77
2022/03/13 00:53:52;;;;;;;12.60;5.00;;;;;;;-141.50;100.00;63355.56;4996648;28;20052;-77
2022/03/13 00:56:18;;;;;;;15.35;4.70;;;;;;;-141.50;100.00;63355.56;5001353;28;20047;-78
2022/03/13 00:58:45;;;;;;;11.18;4.95;;;;;;;-141.50;100.00;63355.56;4993062;28;20050;-77
2022/03/13 01:01:11;;;;;;;11.18;4.63;;;;;;;-141.50;100.00;63355.56;5017916;28;20041;-77
2022/03/13 01:03:39;;;;;;;11.88;5.07;;;;;;;-141.50;100.00;63355.56;5043155;28;20081;-77
2022/03/13 01:06:07;;;;;;;13.43;4.57;;;;;;;-141.50;100.00;63355.56;5038485;28;20076;-78
2022/03/13 01:08:35;;;;;;;11.82;4.95;;;;;;;-141.50;100.00;63355.56;5013205;28;20054;-77
2022/03/13 01:11:03;;;;;;;15.07;5.28;;;;;;;-141.50;100.00;63355.56;5011148;28;20053;-79
2022/03/13 01:13:30;;;;;;;11.23;4.78;;;;;;;-141.50;100.00;63355.56;5010442;28;20092;-77
2022/03/13 01:16:12;;;;;;;13.30;4.80;;;;;;;-141.50;100.00;63355.56;5010351;28;20371;-76
2022/03/13 01:18:41;;;;;;;16.25;5.18;;;;;;;-141.50;100.00;63355.56;5009915;28;20053;-77
2022/03/13 01:21:09;;;;;;;15.80;4.65;;;;;;;-141.50;100.00;63355.56;5009870;28;20058;-77
2022/03/13 01:23:37;;;;;;;11.65;5.43;;;;;;;-141.50;100.00;63355.56;5009840;28;20056;-77
2022/03/13 01:26:36;;;;;;;11.55;4.65;;;;;;;-141.50;100.00;63355.56;5009838;28;20105;-77
2022/03/13 01:29:14;;;;;;;9.15;4.65;;;;;;;-141.50;100.00;63355.56;5016994;28;20080;-77
2022/03/13 01:31:46;;;;;;;14.45;5.30;;;;;;;-141.50;100.00;63355.56;5020139;28;20140;-77
2022/03/13 01:34:26;;;;;;;13.25;4.85;;;;;;;-141.50;100.00;63355.56;5029764;28;20068;-76
2022/03/13 01:36:58;;;;;;;11.48;5.28;;;;;;;-141.50;100.00;63355.56;4994753;28;20125;-76
2022/03/13 01:39:24;;;;;;;12.52;4.35;;;;;;;-141.50;100.00;63355.56;5009583;28;20054;-76
2022/03/13 01:41:51;;;;;;;14.80;5.25;;;;;;;-141.50;100.00;63355.56;5009613;28;20105;-77
2022/03/13 01:44:21;;;;;;;14.48;5.35;;;;;;;-141.50;100.00;63355.56;5009518;28;20050;-77
2022/03/13 01:46:48;;;;;;;11.43;5.25;;;;;;;-141.50;100.00;63355.56;5009911;28;20061;-77
2022/03/13 01:49:16;;;;;;;9.65;4.65;;;;;;;-141.50;100.00;63355.56;5009666;28;20049;-77
2022/03/13 01:51:44;;;;;;;16.08;5.20;;;;;;;-141.50;100.00;63355.56;5008254;28;20769;-77
2022/03/13 01:54:12;;;;;;;13.52;5.50;;;;;;;-141.50;100.00;63355.56;5011963;28;20448;-77
2022/03/13 01:56:41;;;;;;;13.15;5.15;;;;;;;-141.50;100.00;63355.56;5010903;28;20473;-77
2022/03/13 01:59:09;;;;;;;13.38;5.18;;;;;;;-141.50;100.00;63355.56;5013364;28;20148;-78
2022/03/13 02:01:37;;;;;;;16.13;4.97;;;;;;;-141.50;100.00;63355.56;5013680;28;20049;-77
2022/03/13 02:04:05;;;;;;;13.27;4.95;;;;;;;-141.50;100.00;63355.56;5012847;28;20177;-78
2022/03/13 02:06:31;;;;;;;10.88;4.70;;;;;;;-141.50;100.00;63355.56;5013115;28;20050;-78
2022/03/13 02:08:59;;;;;;;11.15;4.82;;;;;;;-141.50;100.00;63355.56;5013443;28;20069;-77
2022/03/13 02:11:36;;;;;;;11.85;5.10;;;;;;;-141.50;100.00;63355.56;5013871;28;20128;-78
2022/03/13 02:14:05;;;;;;;11.35;5.20;;;;;;;-141.50;100.00;63355.56;5016646;28;20054;-79
2022/03/13 02:16:32;;;;;;;13.98;5.05;;;;;;;-141.50;100.00;63355.56;5013317;28;20053;-79
2022/03/13 02:18:59;;;;;;;12.00;5.10;;;;;;;-141.50;100.00;63355.56;5011852;28;20072;-77
2022/03/13 02:21:28;;;;;;;10.15;4.55;;;;;;;-141.50;100.00;63355.56;5010644;28;20088;-77
2022/03/13 02:23:58;;;;;;;12.73;4.30;;;;;;;-141.50;100.00;63355.56;5013580;28;20068;-79
2022/03/13 02:26:25;;;;;;;12.90;4.70;;;;;;;-141.50;100.00;63355.56;5010599;28;20054;-77
2022/03/13 02:28:54;;;;;;;11.40;4.53;;;;;;;-141.50;100.00;63355.56;5014186;28;20052;-77
2022/03/13 02:31:27;;;;;;;10.52;4.35;;;;;;;-141.50;100.00;63355.56;5021039;28;20046;-77
2022/03/13 02:33:56;;;;;;;11.93;4.70;;;;;;;-141.50;100.00;63355.56;5032811;28;20052;-77
2022/03/13 02:36:31;;;;;;;10.90;4.10;;;;;;;-141.50;100.00;63355.56;5029940;28;20045;-78
2022/03/13 02:39:06;;;;;;;11.52;4.60;;;;;;;-141.50;100.00;63355.56;5011639;28;20109;-77
2022/03/13 02:41:33;;;;;;;12.35;5.10;;;;;;;-141.50;100.00;63355.56;5011367;28;20053;-76
2022/03/13 02:44:00;;;;;;;9.00;4.13;;;;;;;-141.50;100.00;63355.56;5012552;28;20404;-77
2022/03/13 02:46:53;;;;;;;10.00;4.38;;;;;;;-141.50;100.00;63355.56;5012372;28;20454;-77
2022/03/13 02:49:22;;;;;;;12.07;4.80;;;;;;;-141.50;100.00;63355.56;5012626;28;20072;-77
2022/03/13 02:51:52;;;;;;;9.10;4.13;;;;;;;-141.50;100.00;63355.56;5011142;28;20518;-76
2022/03/13 02:54:19;;;;;;;11.10;4.45;;;;;;;-141.50;100.00;63355.56;5012218;28;20054;-76
2022/03/13 02:56:47;;;;;;;13.95;4.30;;;;;;;-141.50;100.00;63355.56;5010493;28;20414;-76
2022/03/13 02:59:14;;;;;;;12.63;4.68;;;;;;;-141.50;100.00;63355.56;5011784;28;20046;-76
2022/03/13 03:01:41;;;;;;;11.27;4.95;;;;;;;-141.50;100.00;63355.56;5012568;28;20049;-77
2022/03/13 03:04:08;;;;;;;11.80;4.88;;;;;;;-141.50;100.00;63355.56;5011395;28;20104;-78
2022/03/13 03:06:37;;;;;;;16.40;5.35;;;;;;;-141.50;100.00;63355.56;5012282;28;20054;-79
2022/03/13 03:09:04;;;;;;;10.68;4.70;;;;;;;-141.50;100.00;63355.56;5014602;28;20450;-78
2022/03/13 03:11:34;;;;;;;10.52;4.55;;;;;;;-141.50;100.00;63355.56;5014271;28;20590;-78
2022/03/13 03:14:02;;;;;;;12.23;4.35;;;;;;;-141.50;100.00;63355.56;5015276;28;20084;-76
2022/03/13 03:16:29;;;;;;;11.43;4.45;;;;;;;-141.50;100.00;63355.56;5015252;28;20643;-78
2022/03/13 03:18:57;;;;;;;11.73;4.75;;;;;;;-141.50;100.00;63355.56;5024821;28;20482;-76
2022/03/13 03:21:24;;;;;;;12.73;4.80;;;;;;;-141.50;100.00;63355.56;5021671;28;20058;-77
2022/03/13 03:23:50;;;;;;;12.32;4.88;;;;;;;-141.50;100.00;63355.56;5013545;28;20202;-77
2022/03/13 03:26:17;;;;;;;12.07;4.70;;;;;;;-141.50;100.00;63355.56;5009199;28;20054;-76
2022/03/13 03:28:44;;;;;;;10.27;4.68;;;;;;;-141.50;100.00;63355.56;5011932;28;20053;-77
2022/03/13 03:31:11;;;;;;;13.27;4.57;;;;;;;-141.50;100.00;63355.56;5020942;28;20076;-77
2022/03/13 03:33:38;;;;;;;12.80;4.40;;;;;;;-141.50;100.00;63355.56;5029156;28;20053;-78
2022/03/13 03:36:04;;;;;;;10.95;4.18;;;;;;;-141.50;100.00;63355.56;5030883;28;20046;-76
2022/03/13 03:38:31;;;;;;;12.10;4.82;;;;;;;-141.50;100.00;63355.56;5010846;28;20111;-77
2022/03/13 03:40:58;;;;;;;8.77;3.95;;;;;;;-141.50;100.00;63355.56;5010319;28;20086;-79
2022/03/13 03:43:24;;;;;;;9.35;4.50;;;;;;;-141.50;100.00;63355.56;5010270;28;20057;-78
2022/03/13 03:45:51;;;;;;;12.05;4.30;;;;;;;-141.50;100.00;63355.56;5011250;28;20503;-77
2022/03/13 03:48:20;;;;;;;11.27;4.80;;;;;;;-141.50;100.00;63355.56;5011888;28;20065;-79
2022/03/13 03:50:47;;;;;;;12.38;4.47;;;;;;;-141.50;100.00;63355.56;5013370;28;20453;-78
2022/03/13 03:53:13;;;;;;;10.25;4.25;;;;;;;-141.50;100.00;63355.56;5010855;28;20050;-77
2022/03/13 03:55:40;;;;;;;10.05;4.32;;;;;;;-141.50;100.00;63355.56;5010346;28;20096;-77
2022/03/13 03:58:12;;;;;;;12.18;4.43;;;;;;;-141.50;100.00;63355.56;5009488;28;20104;-78
2022/03/13 04:00:39;;;;;;;9.10;4.30;;;;;;;-141.50;100.00;63355.56;5011721;28;20506;-78
2022/03/13 04:03:06;;;;;;;10.45;4.32;;;;;;;-141.50;100.00;63355.56;5012175;28;20066;-76
2022/03/13 04:05:33;;;;;;;12.32;4.20;;;;;;;-141.50;100.00;63355.56;5011170;28;20145;-77
2022/03/13 04:07:59;;;;;;;11.45;4.90;;;;;;;-141.50;100.00;63355.56;5014219;28;20049;-77
2022/03/13 04:10:26;;;;;;;8.98;4.25;;;;;;;-141.50;100.00;63355.56;5027096;28;20054;-78
2022/03/13 04:12:53;;;;;;;12.68;4.68;;;;;;;-141.50;100.00;63355.56;5024891;28;20056;-79
2022/03/13 04:15:20;;;;;;;10.30;4.38;;;;;;;-141.50;100.00;63355.56;5021904;28;20104;-77
2022/03/13 04:17:46;;;;;;;11.60;4.65;;;;;;;-141.50;100.00;63355.56;5013199;28;20776;-78
2022/03/13 04:20:13;;;;;;;15.95;4.97;;;;;;;-141.50;100.00;63355.56;5027928;28;20069;-76
2022/03/13 04:22:39;;;;;;;9.65;4.63;;;;;;;-141.50;100.00;63355.56;5010703;28;20050;-78
2022/03/13 04:25:06;;;;;;;15.02;4.60;;;;;;;-141.50;100.00;63355.56;5013414;28;20141;-78
2022/03/13 04:27:35;;;;;;;10.38;4.93;;;;;;;-141.50;100.00;63355.56;5009608;28;20054;-76
2022/03/13 04:30:03;;;;;;;10.80;4.95;;;;;;;-141.50;100.00;63355.56;5018272;28;20414;-78
2022/03/13 04:32:30;;;;;;;12.88;5.20;;;;;;;-141.50;100.00;63355.56;5026499;28;20108;-78
2022/03/13 04:34:56;;;;;;;15.20;4.68;;;;;;;-141.50;100.00;63355.56;5049182;28;20072;-78
2022/03/13 04:37:24;;;;;;;12.15;4.88;;;;;;;-141.50;100.00;63355.56;5045197;28;20114;-78
2022/03/13 04:39:51;;;;;;;13.88;4.70;;;;;;;-141.50;100.00;63355.56;5030858;28;20065;-78
2022/03/13 04:42:18;;;;;;;10.02;4.95;;;;;;;-141.50;100.00;63355.56;5016776;28;20054;-77
2022/03/13 04:44:46;;;;;;;11.32;4.80;;;;;;;-141.50;100.00;63355.56;5015090;28;20077;-78
2022/03/13 04:47:12;;;;;;;12.65;4.93;;;;;;;-141.50;100.00;63355.56;5013683;28;20318;-75
2022/03/13 04:49:39;;;;;;;12.25;4.38;;;;;;;-141.50;100.00;63355.56;5013284;28;20066;-77
2022/03/13 04:52:10;;;;;;;11.50;4.75;;;;;;;-141.50;100.00;63355.56;5012292;28;20115;-78
2022/03/13 04:54:37;;;;;;;9.30;4.55;;;;;;;-141.50;100.00;63355.56;5013198;28;20052;-77
2022/03/13 04:57:04;;;;;;;13.32;4.50;;;;;;;-141.50;100.00;63355.56;5011573;28;20141;-77
2022/03/13 04:59:30;;;;;;;10.20;4.93;;;;;;;-141.50;100.00;63355.56;5011943;28;20057;-78
2022/03/13 05:02:00;;;;;;;11.20;4.68;;;;;;;-141.50;100.00;63355.56;5011365;28;20096;-76
2022/03/13 05:04:26;;;;;;;13.57;4.95;;;;;;;-141.50;100.00;63355.56;5011144;28;20540;-77
2022/03/13 05:06:53;;;;;;;9.10;4.78;;;;;;;-141.50;100.00;63355.56;5009830;28;20076;-76
2022/03/13 05:09:19;;;;;;;18.60;4.55;;;;;;;-141.50;100.00;63355.56;5009604;28;20095;-77
2022/03/13 05:11:46;;;;;;;10.20;4.50;;;;;;;-141.50;100.00;63355.56;5008330;28;20046;-77
2022/03/13 05:14:13;;;;;;;12.45;4.97;;;;;;;-141.50;100.00;63355.56;5009821;28;20073;-77
2022/03/13 05:16:39;;;;;;;12.95;5.20;;;;;;;-141.50;100.00;63355.56;5010535;28;20076;-78
2022/03/13 05:19:06;;;;;;;15.35;4.93;;;;;;;-141.50;100.00;63355.56;5010252;28;20053;-77
2022/03/13 05:21:36;;;;;;;13.80;5.10;;;;;;;-141.50;100.00;63355.56;5002503;28;20050;-78
2022/03/13 05:24:03;;;;;;;10.75;4.93;;;;;;;-141.50;100.00;63355.56;4991342;28;20047;-78
2022/03/13 05:26:29;;;;;;;13.23;4.82;;;;;;;-141.50;100.00;63355.56;4994908;28;20046;-77
2022/03/13 05:28:56;;;;;;;13.38;4.78;;;;;;;-141.50;100.00;63355.56;4999729;28;20103;-77
2022/03/13 05:31:22;;;;;;;13.50;4.80;;;;;;;-141.50;100.00;63355.56;5016628;28;20053;-78
2022/03/13 05:33:49;;;;;;;11.48;4.88;;;;;;;-141.50;100.00;63355.56;5028424;28;20064;-78
2022/03/13 05:36:17;;;;;;;12.25;4.88;;;;;;;-141.50;100.00;63355.56;5029244;28;20057;-77
2022/03/13 05:38:43;;;;;;;16.77;4.80;;;;;;;-141.50;100.00;63355.56;5010698;28;20449;-78
2022/03/13 05:41:10;;;;;;;15.15;4.88;;;;;;;-141.50;100.00;63355.56;5010219;28;20054;-78
2022/03/13 05:43:41;;;;;;;12.63;4.70;;;;;;;-141.50;100.00;63355.56;5014731;28;20080;-77
2022/03/13 05:46:07;;;;;;;9.70;4.63;;;;;;;-141.50;100.00;63355.56;5026624;28;20041;-78
2022/03/13 05:48:34;;;;;;;12.38;5.40;;;;;;;-141.50;100.00;63355.56;5012457;28;20080;-78
2022/03/13 05:51:00;;;;;;;9.77;4.32;;;;;;;-141.50;100.00;63355.56;5009852;28;20050;-77
2022/03/13 05:53:27;;;;;;;13.80;5.10;;;;;;;-141.50;100.00;63355.56;5009195;28;20049;-78
2022/03/13 05:55:53;;;;;;;10.32;4.45;;;;;;;-141.50;100.00;63355.56;5008953;28;20058;-75
2022/03/13 05:58:20;;;;;;;11.00;4.82;;;;;;;-141.50;100.00;63355.56;5008244;28;20050;-75
2022/03/13 06:00:54;;;;;;;11.90;5.03;;;;;;;-141.50;100.00;63355.56;5009453;28;20108;-78
2022/03/13 06:03:21;;;;;;;10.27;4.78;;;;;;;-141.50;100.00;63355.56;5009876;28;20050;-77
2022/03/13 06:05:48;;;;;;;12.35;4.90;;;;;;;-141.50;100.00;63355.56;5009304;28;20047;-77
2022/03/13 06:08:15;;;;;;;12.43;4.93;;;;;;;-141.50;100.00;63355.56;5023104;28;20061;-76
2022/03/13 06:10:41;;;;;;;9.88;4.53;;;;;;;-141.50;100.00;63355.56;5009337;28;20056;-78
2022/03/13 06:13:08;;;;;;;11.23;5.00;;;;;;;-141.50;100.00;63355.56;5008197;28;20054;-78
2022/03/13 06:15:35;;;;;;;10.18;4.68;;;;;;;-141.50;100.00;63355.56;5009416;28;20108;-78
2022/03/13 06:18:02;;;;;;;12.02;5.18;;;;;;;-141.50;100.00;63355.56;5008483;28;20093;-79
2022/03/13 06:20:29;;;;;;;11.07;5.03;;;;;;;-141.50;100.00;63355.56;5009089;28;20575;-78
2022/03/13 06:22:57;;;;;;;13.20;5.22;;;;;;;-141.50;100.00;63355.56;5008714;28;20054;-77
2022/03/13 06:25:24;;;;;;;10.55;4.88;;;;;;;-141.50;100.00;63355.56;5008071;28;20053;-78
2022/03/13 06:27:51;;;;;;;10.75;5.22;;;;;;;-141.50;100.00;63355.56;5007088;28;20061;-77
2022/03/13 06:30:19;;;;;;;11.82;5.18;;;;;;;-141.50;100.00;63355.56;5020159;28;20123;-77
2022/03/13 06:32:48;;;;;;;12.48;5.28;;;;;;;-141.50;100.00;63355.56;5019108;28;20049;-77
2022/03/13 06:35:17;;;;;;;14.25;5.30;;;;;;;-141.50;100.00;63355.56;5018715;28;20056;-77
2022/03/13 06:37:43;;;;;;;13.48;4.70;;;;;;;-141.50;100.00;63355.56;5008325;28;20100;-78
2022/03/13 06:40:14;;;;;;;14.50;5.10;;;;;;;-141.50;100.00;63355.56;5009394;28;20057;-78
2022/03/13 06:42:40;;;;;;;12.02;5.07;;;;;;;-141.50;100.00;63355.56;5010291;28;20054;-77
2022/03/13 06:45:10;;;;;;;16.48;5.85;;;;;;;-141.50;100.00;63355.56;5012806;28;20049;-77
2022/03/13 06:47:46;;;;;;;13.10;5.30;;;;;;;-141.50;100.00;63355.56;5011961;28;20060;-77
2022/03/13 06:50:18;;;;;;;12.32;5.38;;;;;;;-141.50;100.00;63355.56;5011163;28;20056;-76
2022/03/13 06:52:47;;;;;;;13.50;5.97;;;;;;;-141.50;100.00;63355.56;5008959;28;20232;-78
2022/03/13 06:55:14;;;;;;;15.55;5.43;;;;;;;-141.50;100.00;63355.56;5003230;28;20081;-77
2022/03/13 06:57:42;;;;;;;18.15;5.60;;;;;;;-141.50;100.00;63355.56;4997430;28;20064;-78
2022/03/13 07:00:13;;;;;;;12.00;5.18;;;;;;;-141.50;100.00;63355.56;5007200;28;20065;-76
2022/03/13 07:02:46;;;;;;;10.75;5.13;;;;;;;-141.50;100.00;63355.56;5001652;28;20050;-75
2022/03/13 07:05:13;;;;;;;11.77;5.60;;;;;;;-141.50;100.00;63355.56;4993339;28;20077;-78
2022/03/13 07:07:39;;;;;;;13.52;5.10;;;;;;;-141.50;100.00;63355.56;4996399;28;20506;-77
2022/03/13 07:10:11;;;;;;;11.82;5.30;;;;;;;-141.50;100.00;63355.56;5018605;28;20465;-78
2022/03/13 07:12:40;;;;;;;10.88;5.18;;;;;;;-141.50;100.00;63355.56;5011647;28;20107;-78
2022/03/13 07:15:13;;;;;;;13.68;5.65;;;;;;;-141.50;100.00;63355.56;5016239;28;20115;-78
2022/03/13 07:17:41;;;;;;;11.85;5.65;;;;;;;-141.50;100.00;63355.56;5012779;28;20876;-76
2022/03/13 07:20:09;;;;;;;11.80;5.72;;;;;;;-141.50;100.00;63355.56;4992457;28;20527;-78
2022/03/13 07:22:36;;;;;;;15.88;5.57;;;;;;;-141.50;100.00;63355.56;4992128;28;20747;-78
2022/03/13 07:25:03;;;;;;;12.30;6.10;;;;;;;-141.50;100.00;63355.56;4994180;28;20073;-77
2022/03/13 07:27:29;;;;;;;10.73;5.07;;;;;;;-141.50;100.00;63355.56;4990797;28;20289;-79
2022/03/13 07:29:56;;;;;;;9.88;5.20;;;;;;;-141.50;100.00;63355.56;5014972;28;20046;-78
2022/03/13 07:32:23;;;;;;;12.40;5.93;;;;;;;-141.50;100.00;63355.56;5023754;28;20096;-78
2022/03/13 07:34:49;;;;;;;12.27;5.30;;;;;;;-141.50;100.00;63355.56;5016526;28;20529;-77
2022/03/13 07:37:16;;;;;;;10.68;5.38;;;;;;;-141.50;100.00;63355.56;4998079;28;20085;-76
2022/03/13 07:39:47;;;;;;;13.18;5.47;;;;;;;-141.50;100.00;63355.56;5000305;28;20537;-78
2022/03/13 07:42:16;;;;;;;12.90;5.45;;;;;;;-141.50;100.00;63355.56;5003017;28;20053;-77
2022/03/13 07:44:44;;;;;;;19.63;6.15;;;;;;;-141.50;100.00;63355.56;5002264;28;20545;-78
2022/03/13 07:47:11;;;;;;;13.55;6.57;;;;;;;-141.50;100.00;63355.56;5008176;28;20777;-77
2022/03/13 07:49:38;;;;;;;12.40;6.03;;;;;;;-141.50;100.00;63355.56;5006278;28;20053;-77
2022/03/13 07:52:05;;;;;;;11.98;5.72;;;;;;;-141.50;100.00;63355.56;5008199;28;20054;-77
2022/03/13 07:54:31;;;;;;;16.98;7.78;;;;;;;-141.50;100.00;63355.56;5009212;28;20112;-80
2022/03/13 07:56:58;;;;;;;22.63;9.25;;;;;;;-141.50;100.00;63355.56;5007810;28;20081;-79
2022/03/13 07:59:24;;;;;;;24.75;10.95;;;;;;;-141.50;100.00;63355.56;5007199;28;20520;-79
2022/03/13 08:01:51;;;;;;;14.65;6.28;;;;;;;-141.50;100.00;63355.56;5010255;28;20814;-78
2022/03/13 08:04:18;;;;;;;11.18;5.65;;;;;;;-141.50;100.00;63355.56;5016620;28;20115;-76
2022/03/13 08:06:44;;;;;;;15.48;5.65;;;;;;;-141.50;100.00;63355.56;5019140;28;20050;-77
2022/03/13 08:09:11;;;;;;;12.75;4.78;;;;;;;-141.50;100.00;63355.56;5032456;28;20050;-77
2022/03/13 08:11:38;;;;;;;13.73;5.55;;;;;;;-141.50;100.00;63355.56;5038037;28;20045;-77
2022/03/13 08:14:08;;;;;;;13.68;5.63;;;;;;;-141.50;100.00;63355.56;5033028;28;20088;-77
2022/03/13 08:16:35;;;;;;;10.63;5.30;;;;;;;-141.50;100.00;63355.56;5028148;28;20083;-77
2022/03/13 08:19:03;;;;;;;11.52;5.55;;;;;;;-141.50;100.00;63355.56;5026495;28;20083;-77
2022/03/13 08:21:29;;;;;;;14.45;6.00;;;;;;;-141.50;100.00;63355.56;5024786;28;20061;-77
2022/03/13 08:23:57;;;;;;;12.18;5.22;;;;;;;-141.50;100.00;63355.56;5003385;28;20136;-76
2022/03/13 08:26:24;;;;;;;13.38;5.78;;;;;;;-141.50;100.00;63355.56;4995633;28;20047;-76
2022/03/13 08:28:50;;;;;;;13.93;5.43;;;;;;;-141.50;100.00;63355.56;5000723;28;20061;-76
2022/03/13 08:31:17;;;;;;;10.75;5.43;;;;;;;-141.50;100.00;63355.56;5007596;28;20058;-74
2022/03/13 08:33:45;;;;;;;12.23;5.53;;;;;;;-141.50;100.00;63355.56;5007704;28;20061;-78
2022/03/13 08:36:30;;;;;;;19.85;8.23;;;;;;;-141.50;100.00;63355.56;5006843;28;20125;-77
2022/03/13 08:39:17;;;;;;;24.23;9.90;;;;;;;-141.50;100.00;63355.56;4996497;28;20054;-76
2022/03/13 08:42:05;;;;;;;38.28;14.07;;;;;;;-141.50;100.00;63355.56;4992120;28;20050;-77
2022/03/13 08:44:52;;;;;;;14.57;5.90;;;;;;;-141.50;100.00;63355.56;4992753;28;20056;-77
2022/03/13 08:47:40;;;;;;;13.02;5.43;;;;;;;-141.50;100.00;63355.56;5027927;28;20057;-78
2022/03/13 08:50:27;;;;;;;10.52;4.85;;;;;;;-141.50;100.00;63355.56;5028854;28;20061;-79
2022/03/13 08:53:14;;;;;;;10.63;5.20;;;;;;;-141.50;100.00;63355.56;5031328;28;20054;-79
2022/03/13 08:56:01;;;;;;;11.70;4.72;;;;;;;-141.50;100.00;63355.56;5031528;28;20052;-78
2022/03/13 08:58:48;;;;;;;10.77;5.55;;;;;;;-141.50;100.00;63355.56;5030980;28;20072;-77
2022/03/13 09:01:35;;;;;;;12.27;4.85;;;;;;;-141.50;100.00;63355.56;5025735;28;20057;-77
2022/03/13 09:04:22;;;;;;;9.38;4.82;;;;;;;-141.50;100.00;63355.56;5025139;28;20053;-78
2022/03/13 09:07:09;;;;;;;11.52;5.50;;;;;;;-141.50;100.00;63355.56;5013480;28;20048;-79
2022/03/13 09:09:56;;;;;;;11.60;5.50;;;;;;;-141.50;100.00;63355.56;4987853;28;20050;-78
2022/03/13 09:12:43;;;;;;;12.13;4.88;;;;;;;-141.50;100.00;63355.56;4991014;28;20046;-76
2022/03/13 09:15:30;;;;;;;10.13;5.38;;;;;;;-141.50;100.00;63355.56;5024409;28;20057;-78
2022/03/13 09:18:17;;;;;;;11.68;5.15;;;;;;;-141.50;100.00;63355.56;5022471;28;20693;-77
2022/03/13 09:21:04;;;;;;;9.23;5.13;;;;;;;-141.50;100.00;63355.56;4992856;28;20050;-76
2022/03/13 09:23:51;;;;;;;8.88;4.57;;;;;;;-141.50;100.00;63355.56;5022902;28;20053;-78
2022/03/13 09:26:40;;;;;;;9.30;4.75;;;;;;;-141.50;100.00;63355.56;4996972;28;20223;-78
2022/03/13 09:29:27;;;;;;;13.55;5.07;;;;;;;-141.50;100.00;63355.56;5019126;28;20167;-77
2022/03/13 09:32:15;;;;;;;10.82;4.93;;;;;;;-141.50;100.00;63355.56;5035337;28;20053;-78
2022/03/13 09:35:02;;;;;;;9.32;5.10;;;;;;;-141.50;100.00;63355.56;5048856;28;20064;-77
2022/03/13 09:37:49;;;;;;;8.30;4.43;;;;;;;-141.50;100.00;63355.56;5048579;28;20102;-78
2022/03/13 09:40:18;;;;;;;9.90;5.18;;;;;;;-141.50;100.00;63355.56;5035638;28;20131;-78
2022/03/13 09:42:47;;;;;;;20.15;7.55;;;;;;;-141.50;100.00;63355.56;5027985;28;20128;-77
2022/03/13 09:45:32;;;;;;;12.80;6.78;;;;;;;-141.50;100.00;63355.56;5024566;28;20168;-78
2022/03/13 09:48:02;;;;;;;10.38;5.40;;;;;;;-141.50;100.00;63355.56;5034008;28;20177;-78
2022/03/13 09:50:31;;;;;;;8.85;4.85;;;;;;;-141.50;100.00;63355.56;5033998;28;20427;-78
2022/03/13 09:52:58;;;;;;;12.10;5.20;;;;;;;-141.50;100.00;63355.56;5037649;28;20079;-79
2022/03/13 09:55:24;;;;;;;11.93;6.05;;;;;;;-141.50;100.00;63355.56;5048772;28;20061;-79
2022/03/13 09:57:52;;;;;;;17.38;5.68;;;;;;;-141.50;100.00;63355.56;5043561;28;20106;-78
2022/03/13 10:00:21;;;;;;;8.80;4.78;;;;;;;-141.50;100.00;63355.56;5029489;28;20458;-75
2022/03/13 10:02:49;;;;;;;8.48;4.57;;;;;;;-141.50;100.00;63355.56;5041808;28;20089;-78
2022/03/13 10:05:18;;;;;;;9.98;4.55;;;;;;;-141.50;100.00;63355.56;5029042;28;20076;-78
2022/03/13 10:08:02;;;;;;;8.85;4.47;;;;;;;-141.50;100.00;63355.56;5030775;28;20053;-78
2022/03/13 10:10:55;;;;;;;7.65;3.90;;;;;;;-141.50;100.00;63355.56;5041974;28;20055;-78
2022/03/13 10:13:46;;;;;;;9.20;4.40;;;;;;;-141.50;100.00;63355.56;5043985;28;20060;-78
2022/03/13 10:16:34;;;;;;;8.15;3.78;;;;;;;-141.50;100.00;63355.56;5046372;28;20091;-78
2022/03/13 10:19:18;;;;;;;7.43;3.97;;;;;;;-141.50;100.00;63355.56;5033879;28;20084;-78
2022/03/13 10:22:05;;;;;;;10.80;4.03;;;;;;;-141.50;100.00;63355.56;5029826;28;20100;-77
2022/03/13 10:24:42;;;;;;;7.63;3.92;;;;;;;-141.50;100.00;63355.56;5035358;28;20685;-77
2022/03/13 10:27:15;;;;;;;7.38;3.67;;;;;;;-141.50;100.00;63355.56;5044183;28;20053;-77
2022/03/13 10:29:45;;;;;;;6.88;4.20;;;;;;;-141.50;100.00;63355.56;5029082;28;20049;-77
2022/03/13 10:32:12;;;;;;;9.18;3.92;;;;;;;-141.50;100.00;63355.56;5039595;28;20082;-77
2022/03/13 10:34:39;;;;;;;6.82;4.05;;;;;;;-141.50;100.00;63355.56;5049421;28;20164;-77
2022/03/13 10:37:07;;;;;;;7.15;3.97;;;;;;;-141.50;100.00;63355.56;5046254;28;20144;-75
2022/03/13 10:39:35;;;;;;;8.75;3.90;;;;;;;-141.50;100.00;63355.56;5050511;28;20095;-77
2022/03/13 10:42:03;;;;;;;6.00;3.72;;;;;;;-141.50;100.00;63355.56;5044626;28;20179;-78
2022/03/13 10:44:52;;;;;;;6.90;3.63;;;;;;;-141.50;100.00;63355.56;5032395;28;20155;-78
2022/03/13 10:47:24;;;;;;;5.70;3.53;;;;;;;-141.50;100.00;63355.56;5023499;28;20050;-77
2022/03/13 10:49:52;;;;;;;7.00;3.97;;;;;;;-141.50;100.00;63355.56;5009139;28;20425;-77
2022/03/13 10:52:34;;;;;;;6.82;3.60;;;;;;;-141.50;100.00;63355.56;5031562;28;20050;-78
2022/03/13 10:55:16;;;;;;;6.25;3.80;;;;;;;-141.50;100.00;63355.56;5047831;28;20054;-78
2022/03/13 10:57:50;;;;;;;6.03;3.72;;;;;;;-141.50;100.00;63355.56;5030105;28;20045;-78
2022/03/13 11:00:17;;;;;;;10.43;3.55;;;;;;;-141.50;100.00;63355.56;5033117;28;20128;-78
2022/03/13 11:02:44;;;;;;;6.65;3.72;;;;;;;-141.50;100.00;63355.56;5032638;28;20064;-78
2022/03/13 11:05:11;;;;;;;8.52;3.80;;;;;;;-141.50;100.00;63355.56;5033143;28;20076;-79
2022/03/13 11:07:37;;;;;;;9.88;3.55;;;;;;;-141.50;100.00;63355.56;5027358;28;20827;-76
2022/03/13 11:10:07;;;;;;;5.70;3.60;;;;;;;-141.50;100.00;63355.56;5028418;28;20057;-77
2022/03/13 11:12:34;;;;;;;7.15;3.60;;;;;;;-141.50;100.00;63355.56;5032487;28;20083;-79
2022/03/13 11:15:02;;;;;;;6.25;3.70;;;;;;;-141.50;100.00;63355.56;5031162;28;20116;-76
2022/03/13 11:17:32;;;;;;;4.80;3.47;;;;;;;-141.50;100.00;63355.56;5030749;28;20060;-77